Time;durP1;ratioP1;P1;durP2;ratioP2;P2;SDS_P1;SDS_P2;PMS_P1;PMS_P2;Temp;Humidity;BMP_temperature;BMP_pressure;BME280_temperature;BME280_humidity;BME280_pressure;Samples;Min_cycle;Max_cycle;Signal;HPM_P1;HPM_P2
2023/06/25 00:00:14;;;;;;;20.20;12.13;;;11.40;99.90;;;;;;5049528;28;20583;-74
2023/06/25 00:03:01;;;;;;;22.57;13.30;;;11.40;99.90;;;;;;5044301;28;20204;-74
2023/06/25 00:05:48;;;;;;;28.70;17.27;;;11.50;99.90;;;;;;5049187;28;20208;-73
2023/06/25 00:08:35;;;;;;;25.43;13.50;;;11.60;99.90;;;;;;5049078;28;20260;-74
2023/06/25 00:11:24;;;;;;;21.77;13.07;;;11.70;99.90;;;;;;5048717;28;20215;-74
2023/06/25 00:14:11;;;;;;;25.93;13.57;;;11.70;99.90;;;;;;5049020;28;21657;-74
2023/06/25 00:16:59;;;;;;;28.00;13.67;;;11.70;99.90;;;;;;5046705;28;20233;-72
2023/06/25 00:19:46;;;;;;;32.60;14.73;;;11.70;99.90;;;;;;5045072;28;20198;-74
2023/06/25 00:22:33;;;;;;;28.63;14.80;;;11.80;99.90;;;;;;5045413;28;20211;-74
2023/06/25 00:25:26;;;;;;;28.40;14.83;;;11.80;99.90;;;;;;5044495;28;20686;-74
2023/06/25 00:28:15;;;;;;;27.53;15.23;;;11.90;99.90;;;;;;5048177;28;20221;-74
2023/06/25 00:31:02;;;;;;;31.27;17.27;;;11.90;99.90;;;;;;5048240;28;20288;-73
2023/06/25 00:33:49;;;;;;;31.57;17.53;;;11.90;99.90;;;;;;5037245;28;20234;-74
2023/06/25 00:36:40;;;;;;;33.17;18.23;;;11.90;99.90;;;;;;5048017;28;20203;-74
2023/06/25 00:39:27;;;;;;;31.30;18.57;;;12.00;99.90;;;;;;5041908;28;20214;-74
2023/06/25 00:42:14;;;;;;;35.17;18.70;;;12.00;99.90;;;;;;5048112;28;20362;-73
2023/06/25 00:45:03;;;;;;;40.53;19.90;;;12.00;99.90;;;;;;5046379;28;20203;-74
2023/06/25 00:47:51;;;;;;;33.33;19.03;;;12.10;99.90;;;;;;5047685;28;20207;-74
2023/06/25 00:50:38;;;;;;;33.07;18.37;;;12.10;99.90;;;;;;5041519;28;20279;-74
2023/06/25 00:53:26;;;;;;;37.27;19.07;;;12.00;99.90;;;;;;5047590;28;20224;-74
2023/06/25 00:56:13;;;;;;;36.47;19.90;;;12.10;99.90;;;;;;5048304;28;20205;-74
2023/06/25 00:59:01;;;;;;;38.10;20.50;;;12.10;99.90;;;;;;5047330;28;20284;-74
2023/06/25 01:01:52;;;;;;;33.70;19.93;;;12.10;99.90;;;;;;5045923;28;20234;-74
2023/06/25 01:04:43;;;;;;;34.80;18.87;;;12.10;99.90;;;;;;5046058;28;20726;-74
2023/06/25 01:07:32;;;;;;;38.30;17.87;;;12.10;99.90;;;;;;5048749;28;20266;-73
2023/06/25 01:10:19;;;;;;;36.97;17.93;;;12.20;99.90;;;;;;5037917;28;20201;-73
2023/06/25 01:13:07;;;;;;;32.03;17.73;;;12.10;99.90;;;;;;5047180;28;20202;-74
2023/06/25 01:15:54;;;;;;;31.70;18.00;;;12.10;99.90;;;;;;5048357;28;20251;-73
2023/06/25 01:18:42;;;;;;;34.63;18.60;;;12.10;99.90;;;;;;5043976;28;20719;-74
2023/06/25 01:21:30;;;;;;;35.30;18.80;;;12.10;99.90;;;;;;5047638;28;20946;-74
2023/06/25 01:24:19;;;;;;;29.57;18.10;;;12.10;99.90;;;;;;5048602;28;20206;-74
2023/06/25 01:27:06;;;;;;;38.57;19.30;;;12.10;99.90;;;;;;5046182;28;20317;-73
2023/06/25 01:29:54;;;;;;;35.77;18.53;;;12.10;99.90;;;;;;5040443;28;20234;-72
2023/06/25 01:32:41;;;;;;;34.17;18.57;;;12.10;99.90;;;;;;5046439;28;20671;-74
2023/06/25 01:35:28;;;;;;;33.83;18.83;;;12.10;99.90;;;;;;5042643;28;20199;-74
2023/06/25 01:38:16;;;;;;;35.43;18.67;;;12.20;99.90;;;;;;5047941;28;20359;-74
2023/06/25 01:41:04;;;;;;;37.30;18.63;;;12.20;99.90;;;;;;5046337;28;20312;-74
2023/06/25 01:43:51;;;;;;;35.67;18.77;;;12.20;99.90;;;;;;5044715;28;20563;-74
2023/06/25 01:46:39;;;;;;;32.97;18.30;;;12.20;99.90;;;;;;5043869;28;20207;-74
2023/06/25 01:49:26;;;;;;;33.10;19.13;;;12.20;99.90;;;;;;5043427;28;20714;-74
2023/06/25 01:52:13;;;;;;;34.93;18.33;;;12.10;99.90;;;;;;5047711;28;20207;-73
2023/06/25 01:55:01;;;;;;;35.30;18.50;;;12.10;99.90;;;;;;5046077;28;20243;-74
2023/06/25 01:57:49;;;;;;;37.67;18.63;;;12.10;99.90;;;;;;5043937;28;20681;-73
2023/06/25 02:00:37;;;;;;;35.37;18.93;;;12.10;99.90;;;;;;5047813;28;20280;-74
2023/06/25 02:03:24;;;;;;;32.77;18.23;;;12.00;99.90;;;;;;5048520;28;20578;-73
2023/06/25 02:06:12;;;;;;;32.47;17.70;;;12.10;99.90;;;;;;5036698;28;20243;-74
2023/06/25 02:08:59;;;;;;;29.87;17.40;;;12.00;99.90;;;;;;5047594;28;20229;-74
2023/06/25 02:11:46;;;;;;;37.10;18.20;;;12.00;99.90;;;;;;5044453;28;20278;-74
2023/06/25 02:14:35;;;;;;;49.97;26.03;;;12.00;99.90;;;;;;5046386;28;20213;-73
2023/06/25 02:17:22;;;;;;;38.60;20.67;;;12.10;99.90;;;;;;5045701;28;20268;-74
2023/06/25 02:20:10;;;;;;;49.53;24.47;;;12.10;99.90;;;;;;5047594;28;20243;-74
2023/06/25 02:22:57;;;;;;;34.00;19.33;;;12.10;99.90;;;;;;5039354;28;20277;-73
2023/06/25 02:25:44;;;;;;;37.63;19.83;;;12.10;99.90;;;;;;5045235;28;20585;-74
2023/06/25 02:28:32;;;;;;;48.67;23.67;;;12.10;99.90;;;;;;5037839;28;20217;-74
2023/06/25 02:31:20;;;;;;;36.80;19.93;;;12.10;99.90;;;;;;5036808;28;20207;-73
2023/06/25 02:34:07;;;;;;;34.90;20.93;;;12.00;99.90;;;;;;5045878;28;20247;-73
2023/06/25 02:36:55;;;;;;;38.00;21.00;;;12.00;99.90;;;;;;5043258;28;20208;-74
2023/06/25 02:39:42;;;;;;;35.10;20.73;;;12.10;99.90;;;;;;5045819;28;20258;-74
2023/06/25 02:42:29;;;;;;;34.30;19.20;;;12.10;99.90;;;;;;5044045;28;20256;-74
2023/06/25 02:45:16;;;;;;;37.07;20.53;;;12.10;99.90;;;;;;5045511;28;20198;-74
2023/06/25 02:48:05;;;;;;;38.57;20.67;;;12.10;99.90;;;;;;5032543;28;20257;-74
2023/06/25 02:50:53;;;;;;;44.23;23.47;;;12.20;99.90;;;;;;5042471;28;20197;-73
2023/06/25 02:53:40;;;;;;;43.47;21.40;;;12.20;99.90;;;;;;5044673;28;20628;-74
2023/06/25 02:56:27;;;;;;;44.47;23.70;;;12.30;99.90;;;;;;5042121;28;20201;-73
2023/06/25 02:59:14;;;;;;;47.03;23.83;;;12.40;99.90;;;;;;5045117;28;20195;-73
2023/06/25 03:02:01;;;;;;;53.37;27.60;;;12.40;99.90;;;;;;5044443;28;20578;-73
2023/06/25 03:04:50;;;;;;;64.20;30.53;;;12.60;99.90;;;;;;5033298;28;21206;-72
2023/06/25 03:07:38;;;;;;;60.17;29.97;;;12.70;99.90;;;;;;5039894;28;20216;-73
2023/06/25 03:10:26;;;;;;;55.20;27.27;;;12.80;99.90;;;;;;5043047;28;21200;-74
2023/06/25 03:13:13;;;;;;;54.60;26.13;;;12.90;99.90;;;;;;5045076;28;20279;-73
2023/06/25 03:16:01;;;;;;;55.07;27.70;;;12.90;99.90;;;;;;5041553;28;20199;-72
2023/06/25 03:18:48;;;;;;;55.13;28.27;;;13.00;99.90;;;;;;5041817;28;20203;-73
2023/06/25 03:21:36;;;;;;;63.07;29.97;;;13.10;99.90;;;;;;5041182;28;20443;-74
2023/06/25 03:24:24;;;;;;;67.30;31.83;;;13.20;99.90;;;;;;5044490;28;20292;-74
2023/06/25 03:27:11;;;;;;;70.37;31.77;;;13.40;99.90;;;;;;5043510;28;20921;-73
2023/06/25 03:29:58;;;;;;;82.40;38.83;;;13.50;99.90;;;;;;5045545;28;20230;-73
2023/06/25 03:32:45;;;;;;;76.73;37.47;;;13.70;99.90;;;;;;5046332;28;20214;-74
2023/06/25 03:35:32;;;;;;;84.60;37.67;;;13.70;99.90;;;;;;5037639;28;20202;-73
2023/06/25 03:38:21;;;;;;;73.80;35.43;;;13.80;99.90;;;;;;5041932;28;20226;-73
2023/06/25 03:41:08;;;;;;;79.57;35.37;;;13.90;99.90;;;;;;5043537;28;20204;-73
2023/06/25 03:43:55;;;;;;;74.97;35.20;;;13.90;99.90;;;;;;5042629;28;20255;-73
2023/06/25 03:46:42;;;;;;;85.67;36.33;;;13.90;99.90;;;;;;5045628;28;20208;-73
2023/06/25 03:49:29;;;;;;;70.43;33.13;;;13.90;99.90;;;;;;5045935;28;20237;-72
2023/06/25 03:52:17;;;;;;;69.43;33.30;;;13.90;99.90;;;;;;5036623;28;20231;-73
2023/06/25 03:55:06;;;;;;;74.33;34.60;;;13.90;99.90;;;;;;5042772;28;20231;-73
2023/06/25 03:57:57;;;;;;;74.77;33.33;;;14.00;99.90;;;;;;5035674;28;20630;-73
2023/06/25 04:00:45;;;;;;;71.63;32.00;;;14.00;99.90;;;;;;5044194;28;20203;-73
2023/06/25 04:03:32;;;;;;;71.97;34.10;;;13.80;99.90;;;;;;5047482;28;20272;-73
2023/06/25 04:06:19;;;;;;;71.00;32.63;;;13.90;99.90;;;;;;5044366;28;20214;-73
2023/06/25 04:09:06;;;;;;;61.27;30.70;;;14.00;99.90;;;;;;5046185;28;20306;-72
2023/06/25 04:11:55;;;;;;;64.17;31.23;;;13.80;99.90;;;;;;5044272;28;20734;-73
2023/06/25 04:14:42;;;;;;;65.33;32.83;;;13.80;99.90;;;;;;5042974;28;20227;-73
2023/06/25 04:17:29;;;;;;;68.13;32.50;;;13.90;99.90;;;;;;5046373;28;20722;-73
2023/06/25 04:20:16;;;;;;;70.17;33.07;;;13.90;99.90;;;;;;5045734;28;22286;-73
2023/06/25 04:23:04;;;;;;;66.63;32.40;;;13.90;99.90;;;;;;5042180;28;20205;-73
2023/06/25 04:25:51;;;;;;;67.20;33.77;;;14.00;99.90;;;;;;5046140;28;20274;-73
2023/06/25 04:28:40;;;;;;;63.87;30.97;;;14.10;99.90;;;;;;5048659;28;20635;-73
2023/06/25 04:31:27;;;;;;;63.83;32.07;;;14.10;99.90;;;;;;5040566;28;20209;-73
2023/06/25 04:34:14;;;;;;;64.90;31.23;;;14.20;99.90;;;;;;5047642;28;20204;-73
2023/06/25 04:37:02;;;;;;;52.77;29.13;;;14.30;99.90;;;;;;5046344;28;20204;-73
2023/06/25 04:39:49;;;;;;;59.63;29.17;;;14.40;99.90;;;;;;5045778;28;20217;-73
2023/06/25 04:42:36;;;;;;;53.57;29.30;;;14.60;99.90;;;;;;5045071;28;20282;-73
2023/06/25 04:45:26;;;;;;;49.87;26.63;;;14.70;99.90;;;;;;5047249;28;20229;-73
2023/06/25 04:48:13;;;;;;;48.37;26.43;;;14.80;99.90;;;;;;5036344;28;20248;-72
2023/06/25 04:51:00;;;;;;;57.33;27.97;;;14.90;99.90;;;;;;5043239;28;20216;-73
2023/06/25 04:53:47;;;;;;;51.43;27.47;;;14.90;99.90;;;;;;5046462;28;20659;-73
2023/06/25 04:56:34;;;;;;;51.17;28.00;;;14.90;99.90;;;;;;5043247;28;20258;-73
2023/06/25 04:59:21;;;;;;;50.87;27.03;;;14.90;99.90;;;;;;5046162;28;20280;-73
2023/06/25 05:02:10;;;;;;;53.60;28.10;;;15.00;99.90;;;;;;5045881;28;20201;-73
2023/06/25 05:04:57;;;;;;;53.40;28.90;;;14.90;99.90;;;;;;5034398;28;20235;-74
2023/06/25 05:07:44;;;;;;;52.17;27.23;;;15.00;99.90;;;;;;5046502;28;20228;-73
2023/06/25 05:10:32;;;;;;;54.50;27.90;;;15.10;99.90;;;;;;5047230;28;20873;-73
2023/06/25 05:13:19;;;;;;;53.27;27.83;;;15.20;99.90;;;;;;5045909;28;20254;-72
2023/06/25 05:16:06;;;;;;;53.60;28.03;;;15.40;99.90;;;;;;5044277;28;20285;-73
2023/06/25 05:18:55;;;;;;;56.10;29.10;;;15.50;99.90;;;;;;5045517;28;20246;-72
2023/06/25 05:21:42;;;;;;;51.43;29.50;;;15.50;99.90;;;;;;5039624;28;20586;-73
2023/06/25 05:24:29;;;;;;;52.93;29.27;;;15.70;99.90;;;;;;5044207;28;20234;-73
2023/06/25 05:27:16;;;;;;;57.70;28.13;;;15.80;99.90;;;;;;5045547;28;20207;-74
2023/06/25 05:30:04;;;;;;;54.40;28.70;;;15.90;99.90;;;;;;5043799;28;20228;-73
2023/06/25 05:32:51;;;;;;;54.07;28.90;;;15.90;99.90;;;;;;5042679;28;20211;-72
2023/06/25 05:35:40;;;;;;;49.93;27.40;;;16.00;99.90;;;;;;5044452;28;20205;-73
2023/06/25 05:38:27;;;;;;;51.40;28.47;;;16.10;99.90;;;;;;5040535;28;20291;-73
2023/06/25 05:41:14;;;;;;;53.73;30.70;;;16.20;99.90;;;;;;5044270;28;20690;-72
2023/06/25 05:44:01;;;;;;;47.43;27.30;;;16.20;99.90;;;;;;5044711;28;20212;-73
2023/06/25 05:46:48;;;;;;;51.10;28.30;;;16.40;99.90;;;;;;5042144;28;20361;-71
2023/06/25 05:49:36;;;;;;;51.50;29.50;;;16.50;99.90;;;;;;5039099;28;20597;-72
2023/06/25 05:52:24;;;;;;;52.53;29.17;;;16.70;99.90;;;;;;5046062;28;20201;-71
2023/06/25 05:55:11;;;;;;;48.50;28.50;;;16.70;99.90;;;;;;5044449;28;21064;-72
2023/06/25 05:57:59;;;;;;;48.03;26.90;;;16.80;99.90;;;;;;5040106;28;20202;-73
2023/06/25 06:00:46;;;;;;;46.93;27.70;;;16.80;99.90;;;;;;5042229;28;20399;-72
2023/06/25 06:03:33;;;;;;;51.70;27.23;;;17.00;99.90;;;;;;5046341;28;20656;-73
2023/06/25 06:06:21;;;;;;;48.07;27.43;;;17.10;99.90;;;;;;5043302;28;20211;-71
2023/06/25 06:09:09;;;;;;;44.47;24.90;;;17.10;99.90;;;;;;5041694;28;20818;-71
2023/06/25 06:11:56;;;;;;;46.03;26.43;;;17.40;99.90;;;;;;5044776;28;20211;-71
2023/06/25 06:14:43;;;;;;;40.47;24.20;;;17.50;99.90;;;;;;5033428;28;20245;-72
2023/06/25 06:17:31;;;;;;;44.73;24.90;;;17.80;99.90;;;;;;5044561;28;20210;-72
2023/06/25 06:20:18;;;;;;;42.37;25.90;;;17.90;99.90;;;;;;5043428;28;20197;-73
2023/06/25 06:23:05;;;;;;;42.17;25.27;;;17.70;99.90;;;;;;5043897;28;20208;-72
2023/06/25 06:25:54;;;;;;;46.70;25.07;;;17.80;99.90;;;;;;5042528;28;20216;-72
2023/06/25 06:28:41;;;;;;;45.50;24.17;;;17.80;99.90;;;;;;5042070;28;20229;-73
2023/06/25 06:31:28;;;;;;;40.60;24.27;;;18.00;99.90;;;;;;5036636;28;20223;-71
2023/06/25 06:34:15;;;;;;;48.20;25.40;;;18.00;99.90;;;;;;5044256;28;20201;-72
2023/06/25 06:37:02;;;;;;;42.73;24.10;;;17.80;99.90;;;;;;5043483;28;20289;-72
2023/06/25 06:39:49;;;;;;;45.90;24.10;;;17.70;99.90;;;;;;5046198;28;20230;-72
2023/06/25 06:42:38;;;;;;;37.90;21.37;;;17.60;99.90;;;;;;5044488;28;20542;-73
2023/06/25 06:45:25;;;;;;;34.70;20.17;;;18.00;99.90;;;;;;5044749;28;20698;-73
2023/06/25 06:48:12;;;;;;;32.53;18.93;;;18.20;99.90;;;;;;5035902;28;20243;-73
2023/06/25 06:51:01;;;;;;;32.13;18.13;;;18.30;99.90;;;;;;5041225;28;20217;-74
2023/06/25 06:53:48;;;;;;;29.83;18.07;;;18.40;99.90;;;;;;5035223;28;20195;-74
2023/06/25 06:56:35;;;;;;;29.50;16.13;;;18.70;99.90;;;;;;5037428;28;20746;-74
2023/06/25 06:59:24;;;;;;;24.80;14.50;;;18.90;99.90;;;;;;5040059;28;20205;-73
2023/06/25 07:02:11;;;;;;;21.40;13.00;;;19.10;99.90;;;;;;5044251;28;20232;-73
2023/06/25 07:04:59;;;;;;;28.17;11.97;;;19.20;99.90;;;;;;5037653;28;20583;-73
2023/06/25 07:07:46;;;;;;;21.37;11.57;;;19.30;99.90;;;;;;5043217;28;20204;-73
2023/06/25 07:10:35;;;;;;;20.57;11.63;;;19.40;99.90;;;;;;5038680;28;20233;-73
2023/06/25 07:13:22;;;;;;;22.50;11.00;;;19.60;99.90;;;;;;5032846;28;20213;-73
2023/06/25 07:16:11;;;;;;;22.20;11.37;;;19.80;99.90;;;;;;5041048;28;20249;-73
2023/06/25 07:18:58;;;;;;;17.77;11.10;;;20.10;99.90;;;;;;5040438;28;20202;-73
2023/06/25 07:21:45;;;;;;;16.47;11.17;;;20.30;99.90;;;;;;5041712;28;20274;-73
2023/06/25 07:24:32;;;;;;;21.17;10.60;;;20.10;99.90;;;;;;5041972;28;20284;-73
2023/06/25 07:27:19;;;;;;;18.00;9.67;;;20.30;99.90;;;;;;5042774;28;20220;-73
2023/06/25 07:30:08;;;;;;;21.03;10.57;;;20.50;99.90;;;;;;5038329;28;20718;-73
2023/06/25 07:32:58;;;;;;;20.00;11.53;;;20.80;99.90;;;;;;5042857;28;20197;-74
2023/06/25 07:35:45;;;;;;;15.90;10.20;;;21.10;99.90;;;;;;5046187;28;20205;-75
2023/06/25 07:38:32;;;;;;;15.83;9.83;;;21.30;99.90;;;;;;5044867;28;20359;-73
2023/06/25 07:41:20;;;;;;;18.33;10.30;;;21.40;99.90;;;;;;5045560;28;20190;-74
2023/06/25 07:44:07;;;;;;;18.83;9.80;;;21.10;99.90;;;;;;5046324;28;20197;-73
2023/06/25 07:46:54;;;;;;;15.20;10.03;;;20.80;99.90;;;;;;5038449;28;20205;-73
2023/06/25 07:49:43;;;;;;;17.43;9.50;;;20.70;99.90;;;;;;5047337;28;20331;-74
2023/06/25 07:52:30;;;;;;;17.87;9.53;;;21.00;99.90;;;;;;5045528;28;20578;-71
2023/06/25 07:55:17;;;;;;;17.80;9.20;;;21.20;99.90;;;;;;5045508;28;20251;-74
2023/06/25 07:58:05;;;;;;;12.63;8.40;;;21.70;99.90;;;;;;5044712;28;20277;-74
2023/06/25 08:00:52;;;;;;;13.67;8.27;;;22.00;99.90;;;;;;5048774;28;20342;-73
2023/06/25 08:03:39;;;;;;;15.97;8.23;;;22.30;99.90;;;;;;5044221;28;20394;-74
2023/06/25 08:06:28;;;;;;;13.90;8.70;;;22.30;99.90;;;;;;5036097;28;20727;-73
2023/06/25 08:09:15;;;;;;;13.57;9.27;;;22.10;99.90;;;;;;5044625;28;20213;-73
2023/06/25 08:12:03;;;;;;;14.53;8.10;;;22.70;99.90;;;;;;5044380;28;20274;-73
2023/06/25 08:14:50;;;;;;;12.30;7.57;;;22.90;99.90;;;;;;5046561;28;20785;-73
2023/06/25 08:17:37;;;;;;;12.37;8.20;;;22.90;99.90;;;;;;5047510;28;20615;-71
2023/06/25 08:20:24;;;;;;;12.13;7.17;;;22.80;99.90;;;;;;5044373;28;20212;-73
2023/06/25 08:23:13;;;;;;;12.07;6.33;;;22.60;99.90;;;;;;5035470;28;20205;-72
2023/06/25 08:26:00;;;;;;;10.52;6.00;;;23.00;99.90;;;;;;5040344;28;20205;-73
2023/06/25 08:28:47;;;;;;;12.77;6.43;;;23.60;99.90;;;;;;5043738;28;20291;-72
2023/06/25 08:31:34;;;;;;;11.13;6.25;;;23.40;99.90;;;;;;5039817;28;20730;-73
2023/06/25 08:34:21;;;;;;;10.15;6.20;;;23.70;99.90;;;;;;5042930;28;20212;-72
2023/06/25 08:37:09;;;;;;;9.07;6.50;;;23.80;99.90;;;;;;5045068;28;20197;-72
2023/06/25 08:39:57;;;;;;;14.32;7.30;;;24.00;99.90;;;;;;5033262;28;20782;-72
2023/06/25 08:42:45;;;;;;;9.90;6.13;;;24.50;99.90;;;;;;5033181;28;20671;-72
2023/06/25 08:45:33;;;;;;;12.65;7.97;;;24.60;99.90;;;;;;5034367;28;20217;-74
2023/06/25 08:48:20;;;;;;;18.00;9.20;;;24.50;99.90;;;;;;4570403;28;533112;-74
2023/06/25 08:51:09;;;;;;;15.20;9.00;;;23.40;99.90;;;;;;4412106;28;657749;-75
2023/06/25 08:53:57;;;;;;;16.10;8.98;;;23.20;99.90;;;;;;4390188;28;657584;-75
2023/06/25 08:56:45;;;;;;;16.60;9.40;;;22.50;99.90;;;;;;4403438;28;657734;-75
2023/06/25 08:59:33;;;;;;;17.02;9.10;;;22.60;99.90;;;;;;4380122;28;659288;-76
2023/06/25 09:02:20;;;;;;;12.82;7.68;;;22.50;99.90;;;;;;4390213;28;657340;-73
2023/06/25 09:05:08;;;;;;;20.30;9.10;;;23.10;99.90;;;;;;4395635;28;657403;-75
2023/06/25 09:07:55;;;;;;;12.73;7.63;;;23.90;99.90;;;;;;4391912;28;657454;-74
2023/06/25 09:10:42;;;;;;;11.70;7.80;;;23.60;99.90;;;;;;4408448;28;658258;-75
2023/06/25 09:13:31;;;;;;;15.43;7.65;;;23.80;99.90;;;;;;4399195;28;658011;-73
2023/06/25 09:16:19;;;;;;;15.50;7.78;;;23.40;99.90;;;;;;4409196;28;657829;-74
2023/06/25 09:19:16;;;;;;;13.43;8.07;;;22.90;99.90;;;;;;4391545;28;657612;-76
2023/06/25 09:22:04;;;;;;;15.30;7.47;;;22.70;99.90;;;;;;4378476;28;657749;-75
2023/06/25 09:24:51;;;;;;;15.48;8.23;;;22.70;99.90;;;;;;4382785;28;657342;-75
2023/06/25 09:27:38;;;;;;;15.85;8.15;;;22.50;99.90;;;;;;4409582;28;658149;-78
2023/06/25 09:30:27;;;;;;;11.40;7.20;;;22.80;99.90;;;;;;4391600;28;657854;-78
2023/06/25 09:33:14;;;;;;;19.25;8.98;;;23.10;99.90;;;;;;4411035;28;657769;-77
2023/06/25 09:36:03;;;;;;;13.15;7.40;;;23.20;99.90;;;;;;4387610;28;657800;-77
2023/06/25 09:38:51;;;;;;;8.93;6.30;;;23.00;99.90;;;;;;4393663;28;657754;-74
2023/06/25 09:41:40;;;;;;;9.98;6.45;;;23.40;99.90;;;;;;4414030;28;657134;-75
2023/06/25 09:44:27;;;;;;;9.02;5.63;;;24.00;99.90;;;;;;4388232;28;656677;-76
2023/06/25 09:47:17;;;;;;;9.77;6.10;;;24.70;99.60;;;;;;4400939;28;656727;-74
2023/06/25 09:50:04;;;;;;;10.90;6.50;;;25.20;95.10;;;;;;4411770;28;656758;-76
2023/06/25 09:52:55;;;;;;;10.93;6.25;;;25.40;85.60;;;;;;4392517;28;657374;-76
2023/06/25 09:55:42;;;;;;;8.25;5.88;;;25.20;92.50;;;;;;4379883;28;657610;-75
2023/06/25 09:58:30;;;;;;;9.05;6.00;;;25.00;85.10;;;;;;4399455;28;656656;-74
2023/06/25 10:01:17;;;;;;;11.57;6.03;;;23.80;91.20;;;;;;4414914;28;655971;-76
2023/06/25 10:04:07;;;;;;;9.60;6.22;;;23.90;95.30;;;;;;4408427;28;658360;-75
2023/06/25 10:06:54;;;;;;;10.70;6.15;;;23.60;94.60;;;;;;4401098;28;656213;-73
2023/06/25 10:09:52;;;;;;;10.82;6.30;;;23.20;97.70;;;;;;4387021;28;658263;-74
2023/06/25 10:12:39;;;;;;;15.02;6.70;;;23.30;99.90;;;;;;4387480;28;657858;-75
2023/06/25 10:15:29;;;;;;;7.25;5.50;;;23.00;99.10;;;;;;4381942;28;658023;-74
2023/06/25 10:18:23;;;;;;;11.38;6.05;;;22.70;99.90;;;;;;4382101;28;656455;-72
2023/06/25 10:21:18;;;;;;;9.48;5.85;;;22.40;99.90;;;;;;4374676;28;658079;-74
2023/06/25 10:24:05;;;;;;;11.77;6.57;;;22.40;99.90;;;;;;4369902;28;656693;-72
2023/06/25 10:26:53;;;;;;;12.35;5.85;;;22.40;99.90;;;;;;4410130;28;658298;-74
2023/06/25 10:29:41;;;;;;;12.97;6.07;;;22.60;99.90;;;;;;4381848;28;657475;-73
2023/06/25 10:32:28;;;;;;;8.63;5.85;;;22.80;99.90;;;;;;4403233;28;658392;-73
2023/06/25 10:35:18;;;;;;;8.70;5.83;;;22.60;99.90;;;;;;4391164;28;657030;-74
2023/06/25 10:38:07;;;;;;;8.57;5.75;;;22.70;99.90;;;;;;4391722;28;656709;-74
2023/06/25 10:40:55;;;;;;;8.90;5.57;;;22.90;99.90;;;;;;4400911;28;656056;-73
2023/06/25 10:43:42;;;;;;;11.80;5.80;;;23.40;99.90;;;;;;4387814;28;657603;-74
2023/06/25 10:46:30;;;;;;;10.25;5.72;;;24.40;99.90;;;;;;4405032;28;657184;-74
2023/06/25 10:49:19;;;;;;;8.77;5.70;;;24.60;96.70;;;;;;4380854;28;658169;-73
2023/06/25 10:52:07;;;;;;;9.45;5.60;;;24.50;95.00;;;;;;4390910;28;656165;-74
2023/06/25 10:54:56;;;;;;;11.30;5.75;;;24.30;96.00;;;;;;4409611;28;656287;-73
2023/06/25 10:57:43;;;;;;;9.65;5.90;;;23.90;92.30;;;;;;4385937;28;658573;-73
2023/06/25 11:00:30;;;;;;;12.75;6.70;;;24.00;94.10;;;;;;4381632;28;657535;-72
2023/06/25 11:03:18;;;;;;;11.25;5.90;;;23.80;99.90;;;;;;4403908;28;657994;-73
2023/06/25 11:06:05;;;;;;;9.18;6.10;;;23.60;96.10;;;;;;4398636;28;658048;-73
2023/06/25 11:08:54;;;;;;;7.95;5.65;;;23.70;99.90;;;;;;4413437;28;656752;-72
2023/06/25 11:11:43;;;;;;;8.23;5.47;;;24.30;99.10;;;;;;4383821;28;657603;-73
2023/06/25 11:14:31;;;;;;;11.20;5.93;;;24.70;93.40;;;;;;4397592;28;656564;-72
2023/06/25 11:17:18;;;;;;;8.93;5.25;;;24.30;95.80;;;;;;4416033;28;658659;-73
2023/06/25 11:20:06;;;;;;;7.70;5.38;;;24.50;94.40;;;;;;4391064;28;656758;-72
2023/06/25 11:22:54;;;;;;;8.93;5.70;;;24.60;90.00;;;;;;4406085;28;657089;-74
2023/06/25 11:25:42;;;;;;;9.57;5.30;;;24.30;87.00;;;;;;4393189;28;656956;-72
2023/06/25 11:28:30;;;;;;;11.68;5.47;;;24.60;84.70;;;;;;4406250;28;656786;-73
2023/06/25 11:31:18;;;;;;;11.95;5.32;;;25.10;83.70;;;;;;4377047;28;658362;-73
2023/06/25 11:34:07;;;;;;;8.15;5.45;;;24.80;80.80;;;;;;4399621;28;657960;-72
2023/06/25 11:36:54;;;;;;;10.00;5.63;;;25.30;75.00;;;;;;4408760;28;656537;-72
2023/06/25 11:39:45;;;;;;;8.82;5.20;;;26.00;76.50;;;;;;4386839;28;657341;-73
2023/06/25 11:42:33;;;;;;;12.35;5.20;;;26.70;74.80;;;;;;4384007;28;657772;-74
2023/06/25 11:45:22;;;;;;;9.98;4.80;;;27.30;67.10;;;;;;4404493;28;657466;-72
2023/06/25 11:48:13;;;;;;;9.45;5.45;;;27.50;62.00;;;;;;4395339;28;656883;-73
2023/06/25 11:51:05;;;;;;;7.13;5.18;;;27.20;62.20;;;;;;4362429;28;656625;-72
2023/06/25 11:53:52;;;;;;;7.45;5.35;;;27.60;65.70;;;;;;4391213;28;657208;-73
2023/06/25 11:56:39;;;;;;;6.78;4.70;;;27.60;57.90;;;;;;4404655;28;656677;-73
2023/06/25 11:59:26;;;;;;;19.77;5.30;;;27.40;57.70;;;;;;4393307;28;657000;-73
2023/06/25 12:02:15;;;;;;;5.70;4.70;;;27.00;59.10;;;;;;4406272;28;657795;-73
2023/06/25 12:05:02;;;;;;;10.05;4.85;;;26.60;59.80;;;;;;4390897;28;657493;-73
2023/06/25 12:07:49;;;;;;;6.60;4.50;;;26.90;57.60;;;;;;4411501;28;658195;-72
2023/06/25 12:10:36;;;;;;;6.78;5.05;;;26.70;56.20;;;;;;4388859;28;656450;-72
2023/06/25 12:13:24;;;;;;;13.10;5.05;;;26.60;54.80;;;;;;4412686;28;656830;-73
2023/06/25 12:16:12;;;;;;;6.47;4.80;;;27.10;56.80;;;;;;4389144;28;658018;-72
2023/06/25 12:19:00;;;;;;;6.65;5.00;;;27.80;58.70;;;;;;4411325;28;656741;-73
2023/06/25 12:21:47;;;;;;;6.35;5.00;;;28.70;54.30;;;;;;4386268;28;657408;-72
2023/06/25 12:24:35;;;;;;;7.13;4.60;;;28.30;50.10;;;;;;4408701;28;656672;-73
2023/06/25 12:27:22;;;;;;;7.95;4.60;;;29.00;50.20;;;;;;4405987;28;657643;-73
2023/06/25 12:30:13;;;;;;;8.45;4.50;;;28.70;48.70;;;;;;4411381;28;656243;-73
2023/06/25 12:33:00;;;;;;;6.80;4.85;;;28.10;50.70;;;;;;4385082;28;656860;-72
2023/06/25 12:35:49;;;;;;;8.85;5.03;;;28.00;53.10;;;;;;4412131;28;657364;-74
2023/06/25 12:38:36;;;;;;;8.73;4.68;;;28.10;52.10;;;;;;4390118;28;656617;-72
2023/06/25 12:41:23;;;;;;;7.25;4.78;;;28.10;56.80;;;;;;4413223;28;657184;-73
2023/06/25 12:44:10;;;;;;;7.25;4.75;;;28.10;53.70;;;;;;4381656;28;656885;-73
2023/06/25 12:46:58;;;;;;;8.55;5.07;;;28.30;57.50;;;;;;4407782;28;657033;-72
2023/06/25 12:49:45;;;;;;;10.20;5.25;;;28.40;52.20;;;;;;4398356;28;656874;-73
2023/06/25 12:52:34;;;;;;;7.82;5.50;;;28.30;53.10;;;;;;4405989;28;658461;-74
2023/06/25 12:55:21;;;;;;;7.82;6.22;;;27.40;53.50;;;;;;4390780;28;656533;-72
2023/06/25 12:58:09;;;;;;;8.18;5.70;;;27.40;56.20;;;;;;4406530;28;656720;-72
2023/06/25 13:00:56;;;;;;;9.07;5.70;;;27.00;54.00;;;;;;4387368;28;656218;-71
2023/06/25 13:03:43;;;;;;;9.20;6.15;;;26.00;53.60;;;;;;4405948;28;657220;-71
2023/06/25 13:06:30;;;;;;;11.98;6.63;;;26.20;57.50;;;;;;4388819;28;657029;-72
2023/06/25 13:09:19;;;;;;;11.38;5.97;;;26.20;54.80;;;;;;4408563;28;657762;-71
2023/06/25 13:12:07;;;;;;;6.75;5.15;;;26.70;54.40;;;;;;4385121;28;657235;-71
2023/06/25 13:14:54;;;;;;;8.95;6.00;;;26.90;54.30;;;;;;4402226;28;656771;-71
2023/06/25 13:17:41;;;;;;;10.65;5.82;;;26.50;55.60;;;;;;4376176;28;656844;-71
2023/06/25 13:20:28;;;;;;;9.35;6.00;;;27.00;52.60;;;;;;4393593;28;658252;-70
2023/06/25 13:23:15;;;;;;;11.48;6.03;;;26.70;50.10;;;;;;4389208;28;657011;-70
2023/06/25 13:26:04;;;;;;;9.73;5.60;;;26.60;51.90;;;;;;4411472;28;657284;-71
2023/06/25 13:28:51;;;;;;;10.32;5.90;;;26.90;51.80;;;;;;4389450;28;656392;-70
2023/06/25 13:31:38;;;;;;;7.15;5.47;;;26.50;56.00;;;;;;4400314;28;658105;-71
2023/06/25 13:34:25;;;;;;;9.13;5.63;;;26.80;52.70;;;;;;4385216;28;656659;-71
2023/06/25 13:37:13;;;;;;;8.05;5.88;;;27.00;52.60;;;;;;4401578;28;657339;-71
2023/06/25 13:40:00;;;;;;;7.00;5.68;;;27.60;53.90;;;;;;4395878;28;656675;-71
2023/06/25 13:42:49;;;;;;;12.00;6.10;;;28.20;52.40;;;;;;4412055;28;656135;-71
2023/06/25 13:45:36;;;;;;;10.48;6.22;;;28.60;51.30;;;;;;4386270;28;657488;-72
2023/06/25 13:48:24;;;;;;;8.80;5.25;;;28.60;51.60;;;;;;4406392;28;658255;-71
2023/06/25 13:51:11;;;;;;;9.57;5.40;;;27.90;48.00;;;;;;4388378;28;656940;-72
2023/06/25 13:53:58;;;;;;;8.73;5.20;;;26.70;50.90;;;;;;4400439;28;657111;-72
2023/06/25 13:56:47;;;;;;;8.40;5.07;;;26.20;53.80;;;;;;4389023;28;656879;-71
2023/06/25 13:59:35;;;;;;;10.20;5.32;;;25.90;51.50;;;;;;4404910;28;656773;-71
2023/06/25 14:02:22;;;;;;;12.95;5.20;;;25.40;51.50;;;;;;4387859;28;657800;-72
2023/06/25 14:05:09;;;;;;;12.65;5.47;;;25.10;52.60;;;;;;4407655;28;657918;-71
2023/06/25 14:07:57;;;;;;;7.90;5.20;;;24.70;55.70;;;;;;4389287;28;658259;-72
2023/06/25 14:10:44;;;;;;;7.40;5.10;;;25.00;55.30;;;;;;4395260;28;656408;-72
2023/06/25 14:13:32;;;;;;;8.30;5.78;;;25.40;56.10;;;;;;4388550;28;656641;-72